sensor_id;sensor_type;location;lat;lon;timestamp;P1;durP1;ratioP1;P2;durP2;ratioP2
27265;SDS011;14766;51.380;13.762;2023-04-30T00:01:03;6.97;;;6.28;;
27265;SDS011;14766;51.380;13.762;2023-04-30T00:03:30;7.68;;;6.40;;
27265;SDS011;14766;51.380;13.762;2023-04-30T00:05:57;6.68;;;5.93;;
27265;SDS011;14766;51.380;13.762;2023-04-30T00:08:24;9.60;;;7.03;;
27265;SDS011;14766;51.380;13.762;2023-04-30T00:10:51;8.00;;;6.30;;
27265;SDS011;14766;51.380;13.762;2023-04-30T00:13:18;7.53;;;6.53;;
27265;SDS011;14766;51.380;13.762;2023-04-30T00:15:45;7.03;;;6.20;;
27265;SDS011;14766;51.380;13.762;2023-04-30T00:18:13;7.93;;;6.05;;
27265;SDS011;14766;51.380;13.762;2023-04-30T00:20:40;7.85;;;6.35;;
27265;SDS011;14766;51.380;13.762;2023-04-30T00:23:07;7.13;;;6.35;;
27265;SDS011;14766;51.380;13.762;2023-04-30T00:25:34;7.18;;;5.90;;
27265;SDS011;14766;51.380;13.762;2023-04-30T00:28:01;7.03;;;5.53;;
27265;SDS011;14766;51.380;13.762;2023-04-30T00:30:29;5.95;;;5.05;;
27265;SDS011;14766;51.380;13.762;2023-04-30T00:32:57;5.85;;;4.70;;
27265;SDS011;14766;51.380;13.762;2023-04-30T00:35:24;5.78;;;4.32;;
27265;SDS011;14766;51.380;13.762;2023-04-30T00:37:51;4.68;;;4.10;;
27265;SDS011;14766;51.380;13.762;2023-04-30T00:40:19;5.97;;;4.72;;
27265;SDS011;14766;51.380;13.762;2023-04-30T00:42:46;8.10;;;4.15;;
27265;SDS011;14766;51.380;13.762;2023-04-30T00:45:14;6.43;;;4.18;;
27265;SDS011;14766;51.380;13.762;2023-04-30T00:47:42;4.68;;;4.00;;
27265;SDS011;14766;51.380;13.762;2023-04-30T00:50:10;5.53;;;4.88;;
27265;SDS011;14766;51.380;13.762;2023-04-30T00:52:41;5.55;;;4.55;;
27265;SDS011;14766;51.380;13.762;2023-04-30T00:55:09;5.90;;;4.57;;
27265;SDS011;14766;51.380;13.762;2023-04-30T00:57:38;5.20;;;4.68;;
27265;SDS011;14766;51.380;13.762;2023-04-30T01:00:08;5.15;;;4.53;;
27265;SDS011;14766;51.380;13.762;2023-04-30T01:02:36;6.72;;;4.30;;
27265;SDS011;14766;51.380;13.762;2023-04-30T01:05:04;6.10;;;4.30;;
27265;SDS011;14766;51.380;13.762;2023-04-30T01:07:33;5.55;;;4.13;;
27265;SDS011;14766;51.380;13.762;2023-04-30T01:10:01;5.15;;;4.00;;
27265;SDS011;14766;51.380;13.762;2023-04-30T01:12:57;5.45;;;3.95;;
27265;SDS011;14766;51.380;13.762;2023-04-30T01:18:17;4.22;;;3.50;;
27265;SDS011;14766;51.380;13.762;2023-04-30T01:21:05;4.70;;;3.28;;
27265;SDS011;14766;51.380;13.762;2023-04-30T01:28:59;4.07;;;3.67;;
27265;SDS011;14766;51.380;13.762;2023-04-30T01:31:29;4.47;;;3.40;;
27265;SDS011;14766;51.380;13.762;2023-04-30T01:33:56;4.38;;;3.45;;
27265;SDS011;14766;51.380;13.762;2023-04-30T01:36:28;5.80;;;3.40;;
27265;SDS011;14766;51.380;13.762;2023-04-30T01:48:02;3.50;;;2.95;;
27265;SDS011;14766;51.380;13.762;2023-04-30T01:50:47;6.63;;;3.63;;
27265;SDS011;14766;51.380;13.762;2023-04-30T01:53:22;5.97;;;3.30;;
27265;SDS011;14766;51.380;13.762;2023-04-30T01:55:58;4.63;;;3.08;;
27265;SDS011;14766;51.380;13.762;2023-04-30T01:58:31;5.47;;;3.30;;
27265;SDS011;14766;51.380;13.762;2023-04-30T02:00:59;4.10;;;3.13;;
27265;SDS011;14766;51.380;13.762;2023-04-30T02:03:26;3.83;;;2.80;;
27265;SDS011;14766;51.380;13.762;2023-04-30T02:05:53;7.43;;;3.17;;
27265;SDS011;14766;51.380;13.762;2023-04-30T02:08:21;4.53;;;3.05;;
27265;SDS011;14766;51.380;13.762;2023-04-30T02:10:48;4.00;;;3.28;;
27265;SDS011;14766;51.380;13.762;2023-04-30T02:13:15;3.45;;;2.60;;
27265;SDS011;14766;51.380;13.762;2023-04-30T02:15:43;3.78;;;2.97;;
27265;SDS011;14766;51.380;13.762;2023-04-30T02:18:10;3.40;;;2.88;;
27265;SDS011;14766;51.380;13.762;2023-04-30T02:20:37;5.22;;;2.45;;
27265;SDS011;14766;51.380;13.762;2023-04-30T02:23:04;4.18;;;2.80;;
27265;SDS011;14766;51.380;13.762;2023-04-30T02:25:31;3.67;;;2.83;;
27265;SDS011;14766;51.380;13.762;2023-04-30T02:28:03;3.42;;;2.53;;
27265;SDS011;14766;51.380;13.762;2023-04-30T02:30:31;3.67;;;3.00;;
27265;SDS011;14766;51.380;13.762;2023-04-30T02:32:58;5.55;;;3.42;;
27265;SDS011;14766;51.380;13.762;2023-04-30T02:35:25;3.60;;;2.85;;
27265;SDS011;14766;51.380;13.762;2023-04-30T02:37:52;4.20;;;3.15;;
27265;SDS011;14766;51.380;13.762;2023-04-30T02:40:19;4.38;;;2.85;;
27265;SDS011;14766;51.380;13.762;2023-04-30T02:42:47;3.38;;;3.03;;
27265;SDS011;14766;51.380;13.762;2023-04-30T02:45:16;4.25;;;3.05;;
27265;SDS011;14766;51.380;13.762;2023-04-30T02:47:43;4.25;;;3.17;;
27265;SDS011;14766;51.380;13.762;2023-04-30T02:50:11;5.25;;;2.97;;
27265;SDS011;14766;51.380;13.762;2023-04-30T02:52:38;4.80;;;3.22;;
27265;SDS011;14766;51.380;13.762;2023-04-30T02:55:06;3.30;;;2.78;;
27265;SDS011;14766;51.380;13.762;2023-04-30T02:57:33;4.05;;;2.95;;
27265;SDS011;14766;51.380;13.762;2023-04-30T03:00:00;3.88;;;3.10;;
27265;SDS011;14766;51.380;13.762;2023-04-30T03:02:28;4.22;;;3.47;;
27265;SDS011;14766;51.380;13.762;2023-04-30T03:04:56;5.47;;;4.05;;
27265;SDS011;14766;51.380;13.762;2023-04-30T03:07:23;4.10;;;3.40;;
27265;SDS011;14766;51.380;13.762;2023-04-30T03:09:50;3.75;;;3.33;;
27265;SDS011;14766;51.380;13.762;2023-04-30T03:12:18;4.00;;;3.58;;
27265;SDS011;14766;51.380;13.762;2023-04-30T03:14:45;4.55;;;3.50;;
27265;SDS011;14766;51.380;13.762;2023-04-30T03:17:12;4.88;;;3.53;;
27265;SDS011;14766;51.380;13.762;2023-04-30T03:19:39;4.35;;;3.55;;
27265;SDS011;14766;51.380;13.762;2023-04-30T03:22:06;4.20;;;3.40;;
27265;SDS011;14766;51.380;13.762;2023-04-30T03:24:33;5.40;;;3.90;;
27265;SDS011;14766;51.380;13.762;2023-04-30T03:27:00;5.40;;;3.80;;
27265;SDS011;14766;51.380;13.762;2023-04-30T03:29:27;7.03;;;3.88;;
27265;SDS011;14766;51.380;13.762;2023-04-30T03:31:55;5.03;;;3.88;;
27265;SDS011;14766;51.380;13.762;2023-04-30T03:34:22;5.35;;;3.67;;
27265;SDS011;14766;51.380;13.762;2023-04-30T03:36:49;6.00;;;4.30;;
27265;SDS011;14766;51.380;13.762;2023-04-30T03:39:16;4.63;;;3.88;;
27265;SDS011;14766;51.380;13.762;2023-04-30T03:41:43;5.47;;;3.58;;
27265;SDS011;14766;51.380;13.762;2023-04-30T03:44:10;4.43;;;3.80;;
27265;SDS011;14766;51.380;13.762;2023-04-30T03:46:41;6.45;;;4.20;;
27265;SDS011;14766;51.380;13.762;2023-04-30T03:49:09;5.50;;;3.80;;
27265;SDS011;14766;51.380;13.762;2023-04-30T03:51:37;4.22;;;3.55;;
27265;SDS011;14766;51.380;13.762;2023-04-30T03:54:07;5.53;;;3.40;;
27265;SDS011;14766;51.380;13.762;2023-04-30T03:56:34;4.45;;;3.72;;
27265;SDS011;14766;51.380;13.762;2023-04-30T03:59:02;5.03;;;3.58;;
27265;SDS011;14766;51.380;13.762;2023-04-30T04:01:31;6.00;;;3.78;;
27265;SDS011;14766;51.380;13.762;2023-04-30T04:04:00;4.82;;;3.47;;
27265;SDS011;14766;51.380;13.762;2023-04-30T04:06:28;5.20;;;4.03;;
27265;SDS011;14766;51.380;13.762;2023-04-30T04:08:56;3.83;;;3.42;;
27265;SDS011;14766;51.380;13.762;2023-04-30T04:11:23;4.05;;;3.47;;
27265;SDS011;14766;51.380;13.762;2023-04-30T04:13:51;4.88;;;3.50;;
27265;SDS011;14766;51.380;13.762;2023-04-30T04:16:18;5.70;;;3.70;;
27265;SDS011;14766;51.380;13.762;2023-04-30T04:18:45;4.88;;;3.92;;
27265;SDS011;14766;51.380;13.762;2023-04-30T04:21:13;3.92;;;3.42;;
27265;SDS011;14766;51.380;13.762;2023-04-30T04:23:40;4.40;;;3.33;;
27265;SDS011;14766;51.380;13.762;2023-04-30T04:26:07;4.65;;;3.22;;
27265;SDS011;14766;51.380;13.762;2023-04-30T04:28:37;6.68;;;3.63;;
27265;SDS011;14766;51.380;13.762;2023-04-30T04:31:04;4.18;;;3.70;;
27265;SDS011;14766;51.380;13.762;2023-04-30T04:33:32;4.88;;;3.35;;
27265;SDS011;14766;51.380;13.762;2023-04-30T04:35:59;5.28;;;3.70;;
27265;SDS011;14766;51.380;13.762;2023-04-30T04:38:26;5.18;;;3.75;;
27265;SDS011;14766;51.380;13.762;2023-04-30T04:40:53;4.50;;;3.90;;
27265;SDS011;14766;51.380;13.762;2023-04-30T04:43:21;5.18;;;3.65;;
27265;SDS011;14766;51.380;13.762;2023-04-30T04:45:48;4.68;;;3.97;;
27265;SDS011;14766;51.380;13.762;2023-04-30T04:48:16;8.55;;;5.32;;
27265;SDS011;14766;51.380;13.762;2023-04-30T04:50:47;6.00;;;5.40;;
27265;SDS011;14766;51.380;13.762;2023-04-30T04:53:13;6.03;;;4.28;;
27265;SDS011;14766;51.380;13.762;2023-04-30T04:55:41;6.57;;;4.30;;
27265;SDS011;14766;51.380;13.762;2023-04-30T04:58:08;6.78;;;3.85;;
27265;SDS011;14766;51.380;13.762;2023-04-30T05:00:35;6.47;;;3.78;;
27265;SDS011;14766;51.380;13.762;2023-04-30T05:03:02;6.00;;;4.00;;
27265;SDS011;14766;51.380;13.762;2023-04-30T05:05:30;7.35;;;3.85;;
27265;SDS011;14766;51.380;13.762;2023-04-30T05:07:57;4.32;;;3.33;;
27265;SDS011;14766;51.380;13.762;2023-04-30T05:10:25;4.72;;;3.25;;
27265;SDS011;14766;51.380;13.762;2023-04-30T05:12:52;6.55;;;3.45;;
27265;SDS011;14766;51.380;13.762;2023-04-30T05:15:19;3.58;;;2.85;;
27265;SDS011;14766;51.380;13.762;2023-04-30T05:17:46;4.50;;;3.28;;
27265;SDS011;14766;51.380;13.762;2023-04-30T05:20:13;5.65;;;3.33;;
27265;SDS011;14766;51.380;13.762;2023-04-30T05:22:40;3.90;;;3.00;;
27265;SDS011;14766;51.380;13.762;2023-04-30T05:25:08;4.57;;;3.33;;
27265;SDS011;14766;51.380;13.762;2023-04-30T05:27:35;5.90;;;3.50;;
27265;SDS011;14766;51.380;13.762;2023-04-30T05:30:02;4.88;;;3.30;;
27265;SDS011;14766;51.380;13.762;2023-04-30T05:32:29;4.45;;;3.42;;
27265;SDS011;14766;51.380;13.762;2023-04-30T05:34:56;5.03;;;3.30;;
27265;SDS011;14766;51.380;13.762;2023-04-30T05:37:24;4.72;;;3.17;;
27265;SDS011;14766;51.380;13.762;2023-04-30T05:39:51;6.20;;;2.88;;
27265;SDS011;14766;51.380;13.762;2023-04-30T05:42:21;4.82;;;3.25;;
27265;SDS011;14766;51.380;13.762;2023-04-30T05:44:50;4.35;;;3.30;;
27265;SDS011;14766;51.380;13.762;2023-04-30T05:47:18;5.30;;;2.92;;
27265;SDS011;14766;51.380;13.762;2023-04-30T05:49:45;5.60;;;3.40;;
27265;SDS011;14766;51.380;13.762;2023-04-30T05:52:12;4.63;;;3.42;;
27265;SDS011;14766;51.380;13.762;2023-04-30T05:54:40;4.07;;;2.70;;
27265;SDS011;14766;51.380;13.762;2023-04-30T05:57:07;5.13;;;3.30;;
27265;SDS011;14766;51.380;13.762;2023-04-30T05:59:35;3.67;;;3.08;;
27265;SDS011;14766;51.380;13.762;2023-04-30T06:02:02;3.97;;;3.08;;
27265;SDS011;14766;51.380;13.762;2023-04-30T06:04:30;4.53;;;3.33;;
27265;SDS011;14766;51.380;13.762;2023-04-30T06:06:57;4.10;;;3.10;;
27265;SDS011;14766;51.380;13.762;2023-04-30T06:09:24;4.22;;;2.70;;
27265;SDS011;14766;51.380;13.762;2023-04-30T06:11:51;6.55;;;3.10;;
27265;SDS011;14766;51.380;13.762;2023-04-30T06:14:19;4.50;;;3.20;;
27265;SDS011;14766;51.380;13.762;2023-04-30T06:16:48;3.55;;;2.25;;
27265;SDS011;14766;51.380;13.762;2023-04-30T06:19:15;6.63;;;3.10;;
27265;SDS011;14766;51.380;13.762;2023-04-30T06:21:42;5.55;;;3.00;;
27265;SDS011;14766;51.380;13.762;2023-04-30T06:24:10;5.03;;;2.80;;
27265;SDS011;14766;51.380;13.762;2023-04-30T06:26:38;5.90;;;3.25;;
27265;SDS011;14766;51.380;13.762;2023-04-30T06:29:05;5.97;;;3.47;;
27265;SDS011;14766;51.380;13.762;2023-04-30T06:31:33;4.07;;;3.10;;
27265;SDS011;14766;51.380;13.762;2023-04-30T06:34:00;4.82;;;2.83;;
27265;SDS011;14766;51.380;13.762;2023-04-30T06:36:27;4.78;;;2.80;;
27265;SDS011;14766;51.380;13.762;2023-04-30T06:38:55;4.97;;;3.05;;
27265;SDS011;14766;51.380;13.762;2023-04-30T06:41:22;4.65;;;3.20;;
27265;SDS011;14766;51.380;13.762;2023-04-30T06:43:49;3.88;;;2.72;;
27265;SDS011;14766;51.380;13.762;2023-04-30T06:46:16;5.07;;;3.10;;
27265;SDS011;14766;51.380;13.762;2023-04-30T06:48:43;5.40;;;3.13;;
27265;SDS011;14766;51.380;13.762;2023-04-30T06:51:10;5.85;;;3.30;;
27265;SDS011;14766;51.380;13.762;2023-04-30T06:53:39;4.38;;;2.70;;
27265;SDS011;14766;51.380;13.762;2023-04-30T06:56:06;4.68;;;2.63;;
27265;SDS011;14766;51.380;13.762;2023-04-30T06:58:33;5.55;;;2.90;;
27265;SDS011;14766;51.380;13.762;2023-04-30T07:01:00;4.05;;;2.53;;
27265;SDS011;14766;51.380;13.762;2023-04-30T07:03:28;5.72;;;3.15;;
27265;SDS011;14766;51.380;13.762;2023-04-30T07:05:56;4.75;;;2.75;;
27265;SDS011;14766;51.380;13.762;2023-04-30T07:08:23;4.90;;;2.58;;
27265;SDS011;14766;51.380;13.762;2023-04-30T07:10:50;5.00;;;2.80;;
27265;SDS011;14766;51.380;13.762;2023-04-30T07:13:18;7.63;;;2.85;;
27265;SDS011;14766;51.380;13.762;2023-04-30T07:15:45;4.60;;;2.97;;
27265;SDS011;14766;51.380;13.762;2023-04-30T07:18:12;5.07;;;2.30;;
27265;SDS011;14766;51.380;13.762;2023-04-30T07:20:39;5.13;;;2.90;;
27265;SDS011;14766;51.380;13.762;2023-04-30T07:23:06;4.03;;;2.53;;
27265;SDS011;14766;51.380;13.762;2023-04-30T07:25:33;4.82;;;2.55;;
27265;SDS011;14766;51.380;13.762;2023-04-30T07:28:00;5.40;;;2.50;;
27265;SDS011;14766;51.380;13.762;2023-04-30T07:30:27;5.60;;;2.95;;
27265;SDS011;14766;51.380;13.762;2023-04-30T07:32:55;6.15;;;2.75;;
27265;SDS011;14766;51.380;13.762;2023-04-30T07:35:22;4.65;;;2.92;;
27265;SDS011;14766;51.380;13.762;2023-04-30T07:37:49;3.80;;;2.33;;
27265;SDS011;14766;51.380;13.762;2023-04-30T07:40:16;3.78;;;2.60;;
27265;SDS011;14766;51.380;13.762;2023-04-30T07:42:59;4.95;;;2.58;;
27265;SDS011;14766;51.380;13.762;2023-04-30T07:45:26;4.78;;;2.65;;
27265;SDS011;14766;51.380;13.762;2023-04-30T07:47:55;5.95;;;2.67;;
27265;SDS011;14766;51.380;13.762;2023-04-30T07:50:22;4.75;;;2.20;;
27265;SDS011;14766;51.380;13.762;2023-04-30T07:52:49;4.95;;;2.40;;
27265;SDS011;14766;51.380;13.762;2023-04-30T07:55:16;3.30;;;2.00;;
27265;SDS011;14766;51.380;13.762;2023-04-30T07:57:43;6.85;;;3.10;;
27265;SDS011;14766;51.380;13.762;2023-04-30T08:00:10;6.88;;;2.50;;
27265;SDS011;14766;51.380;13.762;2023-04-30T08:02:39;4.18;;;2.20;;
27265;SDS011;14766;51.380;13.762;2023-04-30T08:05:06;5.38;;;2.22;;
27265;SDS011;14766;51.380;13.762;2023-04-30T08:07:34;6.85;;;2.42;;
27265;SDS011;14766;51.380;13.762;2023-04-30T08:10:01;5.05;;;2.10;;
27265;SDS011;14766;51.380;13.762;2023-04-30T08:12:28;4.53;;;2.20;;
27265;SDS011;14766;51.380;13.762;2023-04-30T08:15:01;5.03;;;2.20;;
27265;SDS011;14766;51.380;13.762;2023-04-30T08:17:33;4.40;;;2.22;;
27265;SDS011;14766;51.380;13.762;2023-04-30T08:20:04;5.43;;;2.53;;
27265;SDS011;14766;51.380;13.762;2023-04-30T08:22:31;5.25;;;2.50;;
27265;SDS011;14766;51.380;13.762;2023-04-30T08:24:58;4.93;;;2.75;;
27265;SDS011;14766;51.380;13.762;2023-04-30T08:27:29;3.60;;;2.30;;
27265;SDS011;14766;51.380;13.762;2023-04-30T08:29:57;4.93;;;2.50;;
27265;SDS011;14766;51.380;13.762;2023-04-30T08:32:25;7.25;;;2.63;;
27265;SDS011;14766;51.380;13.762;2023-04-30T08:34:53;6.00;;;2.38;;
27265;SDS011;14766;51.380;13.762;2023-04-30T08:37:20;5.88;;;2.45;;
27265;SDS011;14766;51.380;13.762;2023-04-30T08:39:48;5.78;;;2.10;;
27265;SDS011;14766;51.380;13.762;2023-04-30T08:42:17;4.15;;;1.88;;
27265;SDS011;14766;51.380;13.762;2023-04-30T08:44:46;5.75;;;2.13;;
27265;SDS011;14766;51.380;13.762;2023-04-30T08:47:13;3.55;;;1.85;;
27265;SDS011;14766;51.380;13.762;2023-04-30T08:49:42;4.88;;;1.95;;
27265;SDS011;14766;51.380;13.762;2023-04-30T08:52:11;5.13;;;2.20;;
27265;SDS011;14766;51.380;13.762;2023-04-30T08:54:39;4.50;;;1.90;;
27265;SDS011;14766;51.380;13.762;2023-04-30T08:57:08;4.97;;;1.90;;
27265;SDS011;14766;51.380;13.762;2023-04-30T08:59:37;5.30;;;2.47;;
27265;SDS011;14766;51.380;13.762;2023-04-30T09:02:05;5.65;;;2.17;;
27265;SDS011;14766;51.380;13.762;2023-04-30T09:04:34;6.47;;;2.40;;
27265;SDS011;14766;51.380;13.762;2023-04-30T09:07:01;5.30;;;2.25;;
27265;SDS011;14766;51.380;13.762;2023-04-30T09:09:36;5.28;;;2.13;;
27265;SDS011;14766;51.380;13.762;2023-04-30T09:12:14;3.75;;;2.38;;
27265;SDS011;14766;51.380;13.762;2023-04-30T09:14:59;6.28;;;1.90;;
27265;SDS011;14766;51.380;13.762;2023-04-30T09:17:27;3.05;;;1.90;;
27265;SDS011;14766;51.380;13.762;2023-04-30T09:20:08;4.47;;;2.17;;
27265;SDS011;14766;51.380;13.762;2023-04-30T09:22:38;2.72;;;1.83;;
27265;SDS011;14766;51.380;13.762;2023-04-30T09:25:07;3.70;;;2.03;;
27265;SDS011;14766;51.380;13.762;2023-04-30T09:27:35;4.82;;;2.17;;
27265;SDS011;14766;51.380;13.762;2023-04-30T09:30:02;5.68;;;2.05;;
27265;SDS011;14766;51.380;13.762;2023-04-30T09:32:30;3.47;;;1.80;;
27265;SDS011;14766;51.380;13.762;2023-04-30T09:34:57;6.00;;;2.00;;
27265;SDS011;14766;51.380;13.762;2023-04-30T09:37:35;4.95;;;2.65;;
27265;SDS011;14766;51.380;13.762;2023-04-30T09:40:03;4.50;;;1.80;;
27265;SDS011;14766;51.380;13.762;2023-04-30T09:42:30;3.42;;;1.88;;
27265;SDS011;14766;51.380;13.762;2023-04-30T09:44:57;3.70;;;1.90;;
27265;SDS011;14766;51.380;13.762;2023-04-30T09:47:28;4.30;;;1.85;;
27265;SDS011;14766;51.380;13.762;2023-04-30T09:49:57;6.82;;;2.30;;
27265;SDS011;14766;51.380;13.762;2023-04-30T09:52:26;4.22;;;1.80;;
27265;SDS011;14766;51.380;13.762;2023-04-30T09:54:53;5.28;;;2.08;;
27265;SDS011;14766;51.380;13.762;2023-04-30T09:57:21;4.68;;;1.90;;
27265;SDS011;14766;51.380;13.762;2023-04-30T09:59:49;5.25;;;2.00;;
27265;SDS011;14766;51.380;13.762;2023-04-30T10:02:19;5.97;;;1.98;;
27265;SDS011;14766;51.380;13.762;2023-04-30T10:04:52;4.90;;;1.92;;
27265;SDS011;14766;51.380;13.762;2023-04-30T10:07:21;4.72;;;2.00;;
27265;SDS011;14766;51.380;13.762;2023-04-30T10:09:58;2.55;;;1.52;;
27265;SDS011;14766;51.380;13.762;2023-04-30T10:12:42;3.30;;;1.60;;
27265;SDS011;14766;51.380;13.762;2023-04-30T10:15:25;2.45;;;1.50;;
27265;SDS011;14766;51.380;13.762;2023-04-30T10:20:27;4.30;;;1.60;;
27265;SDS011;14766;51.380;13.762;2023-04-30T10:22:56;4.20;;;1.63;;
27265;SDS011;14766;51.380;13.762;2023-04-30T10:25:25;6.50;;;2.00;;
27265;SDS011;14766;51.380;13.762;2023-04-30T10:27:54;5.53;;;1.70;;
27265;SDS011;14766;51.380;13.762;2023-04-30T10:30:21;3.30;;;1.65;;
27265;SDS011;14766;51.380;13.762;2023-04-30T10:35:34;6.05;;;2.70;;
27265;SDS011;14766;51.380;13.762;2023-04-30T10:38:24;4.38;;;2.00;;
27265;SDS011;14766;51.380;13.762;2023-04-30T10:40:56;4.05;;;1.80;;
27265;SDS011;14766;51.380;13.762;2023-04-30T10:43:31;3.00;;;1.63;;
27265;SDS011;14766;51.380;13.762;2023-04-30T10:46:00;5.93;;;2.20;;
27265;SDS011;14766;51.380;13.762;2023-04-30T10:48:32;6.35;;;2.40;;
27265;SDS011;14766;51.380;13.762;2023-04-30T10:51:00;3.08;;;1.85;;
27265;SDS011;14766;51.380;13.762;2023-04-30T10:53:31;4.82;;;2.03;;
27265;SDS011;14766;51.380;13.762;2023-04-30T10:56:00;4.90;;;1.73;;
27265;SDS011;14766;51.380;13.762;2023-04-30T10:58:37;3.07;;;1.90;;
27265;SDS011;14766;51.380;13.762;2023-04-30T11:01:11;3.67;;;1.83;;
27265;SDS011;14766;51.380;13.762;2023-04-30T11:03:40;4.77;;;1.70;;
27265;SDS011;14766;51.380;13.762;2023-04-30T11:06:12;4.75;;;1.95;;
27265;SDS011;14766;51.380;13.762;2023-04-30T11:08:44;4.45;;;1.77;;
27265;SDS011;14766;51.380;13.762;2023-04-30T11:11:18;4.47;;;1.80;;
27265;SDS011;14766;51.380;13.762;2023-04-30T11:13:58;3.72;;;1.70;;
27265;SDS011;14766;51.380;13.762;2023-04-30T11:16:30;3.33;;;1.90;;
27265;SDS011;14766;51.380;13.762;2023-04-30T11:19:10;2.88;;;1.42;;
27265;SDS011;14766;51.380;13.762;2023-04-30T11:21:41;3.85;;;1.60;;
27265;SDS011;14766;51.380;13.762;2023-04-30T11:27:32;2.30;;;1.75;;
27265;SDS011;14766;51.380;13.762;2023-04-30T11:30:00;4.63;;;1.77;;
27265;SDS011;14766;51.380;13.762;2023-04-30T11:32:33;3.47;;;1.50;;
27265;SDS011;14766;51.380;13.762;2023-04-30T11:35:03;3.72;;;1.85;;
27265;SDS011;14766;51.380;13.762;2023-04-30T11:37:32;3.90;;;1.85;;
27265;SDS011;14766;51.380;13.762;2023-04-30T11:40:02;5.13;;;1.88;;
27265;SDS011;14766;51.380;13.762;2023-04-30T11:42:33;6.18;;;2.38;;
27265;SDS011;14766;51.380;13.762;2023-04-30T11:47:37;7.72;;;5.18;;
27265;SDS011;14766;51.380;13.762;2023-04-30T11:50:09;8.68;;;7.03;;
27265;SDS011;14766;51.380;13.762;2023-04-30T11:52:41;4.73;;;2.30;;
27265;SDS011;14766;51.380;13.762;2023-04-30T11:55:18;6.25;;;1.95;;
27265;SDS011;14766;51.380;13.762;2023-04-30T11:57:47;4.00;;;1.90;;
27265;SDS011;14766;51.380;13.762;2023-04-30T12:00:18;6.05;;;2.33;;
27265;SDS011;14766;51.380;13.762;2023-04-30T12:02:48;4.22;;;1.65;;
27265;SDS011;14766;51.380;13.762;2023-04-30T12:05:16;3.15;;;1.60;;
27265;SDS011;14766;51.380;13.762;2023-04-30T12:07:46;3.40;;;1.80;;
27265;SDS011;14766;51.380;13.762;2023-04-30T12:10:21;2.63;;;1.73;;
27265;SDS011;14766;51.380;13.762;2023-04-30T12:12:49;3.53;;;1.63;;
27265;SDS011;14766;51.380;13.762;2023-04-30T12:15:19;4.10;;;1.60;;
27265;SDS011;14766;51.380;13.762;2023-04-30T12:17:52;4.05;;;1.60;;
27265;SDS011;14766;51.380;13.762;2023-04-30T12:20:36;3.58;;;2.03;;
27265;SDS011;14766;51.380;13.762;2023-04-30T12:23:05;2.05;;;1.45;;
27265;SDS011;14766;51.380;13.762;2023-04-30T12:25:40;4.47;;;1.45;;
27265;SDS011;14766;51.380;13.762;2023-04-30T12:28:09;4.85;;;1.63;;
27265;SDS011;14766;51.380;13.762;2023-04-30T12:30:37;4.88;;;1.60;;
27265;SDS011;14766;51.380;13.762;2023-04-30T12:33:04;2.50;;;1.50;;
27265;SDS011;14766;51.380;13.762;2023-04-30T12:35:31;5.03;;;1.75;;
27265;SDS011;14766;51.380;13.762;2023-04-30T12:38:05;4.65;;;1.80;;
27265;SDS011;14766;51.380;13.762;2023-04-30T12:40:35;3.13;;;1.70;;
27265;SDS011;14766;51.380;13.762;2023-04-30T12:43:04;3.60;;;1.50;;
27265;SDS011;14766;51.380;13.762;2023-04-30T12:48:23;2.75;;;1.45;;
27265;SDS011;14766;51.380;13.762;2023-04-30T12:51:00;4.30;;;1.67;;
27265;SDS011;14766;51.380;13.762;2023-04-30T12:53:28;5.47;;;2.10;;
27265;SDS011;14766;51.380;13.762;2023-04-30T12:58:41;5.28;;;1.73;;
27265;SDS011;14766;51.380;13.762;2023-04-30T13:01:11;3.15;;;1.40;;
27265;SDS011;14766;51.380;13.762;2023-04-30T13:03:39;2.63;;;1.38;;
27265;SDS011;14766;51.380;13.762;2023-04-30T13:06:06;2.70;;;1.30;;
27265;SDS011;14766;51.380;13.762;2023-04-30T13:08:35;4.05;;;1.48;;
27265;SDS011;14766;51.380;13.762;2023-04-30T13:11:22;2.92;;;1.60;;
27265;SDS011;14766;51.380;13.762;2023-04-30T13:13:52;4.47;;;1.42;;
27265;SDS011;14766;51.380;13.762;2023-04-30T13:16:21;3.97;;;1.48;;
27265;SDS011;14766;51.380;13.762;2023-04-30T13:18:52;2.35;;;1.30;;
27265;SDS011;14766;51.380;13.762;2023-04-30T13:21:21;3.70;;;1.52;;
27265;SDS011;14766;51.380;13.762;2023-04-30T13:23:48;3.40;;;1.45;;
27265;SDS011;14766;51.380;13.762;2023-04-30T13:26:20;2.70;;;1.38;;
27265;SDS011;14766;51.380;13.762;2023-04-30T13:28:49;4.22;;;1.55;;
27265;SDS011;14766;51.380;13.762;2023-04-30T13:31:18;3.97;;;1.50;;
27265;SDS011;14766;51.380;13.762;2023-04-30T13:33:46;3.22;;;1.60;;
27265;SDS011;14766;51.380;13.762;2023-04-30T13:36:13;3.92;;;1.48;;
27265;SDS011;14766;51.380;13.762;2023-04-30T13:38:40;4.70;;;1.50;;
27265;SDS011;14766;51.380;13.762;2023-04-30T13:41:08;2.97;;;1.30;;
27265;SDS011;14766;51.380;13.762;2023-04-30T13:43:35;3.75;;;1.52;;
27265;SDS011;14766;51.380;13.762;2023-04-30T13:46:07;2.35;;;1.40;;
27265;SDS011;14766;51.380;13.762;2023-04-30T13:48:35;2.17;;;1.30;;
27265;SDS011;14766;51.380;13.762;2023-04-30T13:51:03;2.83;;;1.50;;
27265;SDS011;14766;51.380;13.762;2023-04-30T13:53:30;3.88;;;1.63;;
27265;SDS011;14766;51.380;13.762;2023-04-30T13:55:57;2.25;;;1.08;;
27265;SDS011;14766;51.380;13.762;2023-04-30T13:58:24;2.38;;;1.55;;
27265;SDS011;14766;51.380;13.762;2023-04-30T14:00:52;2.90;;;1.40;;
27265;SDS011;14766;51.380;13.762;2023-04-30T14:03:21;1.48;;;1.17;;
27265;SDS011;14766;51.380;13.762;2023-04-30T14:05:48;4.00;;;1.45;;
27265;SDS011;14766;51.380;13.762;2023-04-30T14:08:15;3.15;;;1.20;;
27265;SDS011;14766;51.380;13.762;2023-04-30T14:10:45;3.92;;;1.75;;
27265;SDS011;14766;51.380;13.762;2023-04-30T14:13:12;3.50;;;1.50;;
27265;SDS011;14766;51.380;13.762;2023-04-30T14:15:39;3.40;;;1.77;;
27265;SDS011;14766;51.380;13.762;2023-04-30T14:18:06;3.40;;;1.48;;
27265;SDS011;14766;51.380;13.762;2023-04-30T14:20:33;2.53;;;1.35;;
27265;SDS011;14766;51.380;13.762;2023-04-30T14:23:01;11.52;;;4.88;;
27265;SDS011;14766;51.380;13.762;2023-04-30T14:25:28;3.90;;;1.63;;
27265;SDS011;14766;51.380;13.762;2023-04-30T14:27:55;3.33;;;1.40;;
27265;SDS011;14766;51.380;13.762;2023-04-30T14:30:22;2.20;;;1.42;;
27265;SDS011;14766;51.380;13.762;2023-04-30T14:32:50;2.85;;;1.50;;
27265;SDS011;14766;51.380;13.762;2023-04-30T14:35:17;2.42;;;1.30;;
27265;SDS011;14766;51.380;13.762;2023-04-30T14:37:46;3.78;;;1.23;;
27265;SDS011;14766;51.380;13.762;2023-04-30T14:40:13;3.40;;;1.27;;
27265;SDS011;14766;51.380;13.762;2023-04-30T14:42:40;3.70;;;1.73;;
27265;SDS011;14766;51.380;13.762;2023-04-30T14:45:08;2.35;;;1.25;;
27265;SDS011;14766;51.380;13.762;2023-04-30T14:47:35;4.35;;;1.23;;
27265;SDS011;14766;51.380;13.762;2023-04-30T14:50:02;2.30;;;1.15;;
27265;SDS011;14766;51.380;13.762;2023-04-30T14:52:31;2.38;;;1.13;;
27265;SDS011;14766;51.380;13.762;2023-04-30T14:54:57;4.57;;;1.23;;
27265;SDS011;14766;51.380;13.762;2023-04-30T14:57:24;1.27;;;0.90;;
27265;SDS011;14766;51.380;13.762;2023-04-30T14:59:53;2.25;;;0.90;;
27265;SDS011;14766;51.380;13.762;2023-04-30T15:02:23;2.50;;;1.15;;
27265;SDS011;14766;51.380;13.762;2023-04-30T15:04:50;2.10;;;1.20;;
27265;SDS011;14766;51.380;13.762;2023-04-30T15:07:17;1.60;;;1.00;;
27265;SDS011;14766;51.380;13.762;2023-04-30T15:09:47;1.58;;;1.02;;
27265;SDS011;14766;51.380;13.762;2023-04-30T15:12:14;2.47;;;1.13;;
27265;SDS011;14766;51.380;13.762;2023-04-30T15:14:41;1.90;;;0.95;;
27265;SDS011;14766;51.380;13.762;2023-04-30T15:17:08;1.77;;;1.10;;